sensor_id;sensor_type;location;lat;lon;timestamp;temperature;humidity
41668;DHT22;27356;50.920;5.350;2023-02-15T00:01:54;2.60;99.90
41668;DHT22;27356;50.920;5.350;2023-02-15T00:04:23;2.60;99.90
41668;DHT22;27356;50.920;5.350;2023-02-15T00:06:50;2.50;99.90
41668;DHT22;27356;50.920;5.350;2023-02-15T00:09:16;2.50;99.90
41668;DHT22;27356;50.920;5.350;2023-02-15T00:11:41;2.50;99.90
41668;DHT22;27356;50.920;5.350;2023-02-15T00:14:19;2.50;99.90
41668;DHT22;27356;50.920;5.350;2023-02-15T00:16:46;2.50;99.90
41668;DHT22;27356;50.920;5.350;2023-02-15T00:19:13;2.50;99.90
41668;DHT22;27356;50.920;5.350;2023-02-15T00:21:40;2.50;99.90
41668;DHT22;27356;50.920;5.350;2023-02-15T00:24:08;2.50;99.90
41668;DHT22;27356;50.920;5.350;2023-02-15T00:26:34;2.40;99.90
41668;DHT22;27356;50.920;5.350;2023-02-15T00:29:01;2.30;99.90
41668;DHT22;27356;50.920;5.350;2023-02-15T00:31:28;2.30;99.90
41668;DHT22;27356;50.920;5.350;2023-02-15T00:34:00;2.30;99.90
41668;DHT22;27356;50.920;5.350;2023-02-15T00:36:26;2.30;99.90
41668;DHT22;27356;50.920;5.350;2023-02-15T00:38:52;2.30;99.90
41668;DHT22;27356;50.920;5.350;2023-02-15T00:41:17;2.30;99.90
41668;DHT22;27356;50.920;5.350;2023-02-15T00:43:43;2.30;99.90
41668;DHT22;27356;50.920;5.350;2023-02-15T00:46:09;2.20;99.90
41668;DHT22;27356;50.920;5.350;2023-02-15T00:48:35;2.20;99.90
41668;DHT22;27356;50.920;5.350;2023-02-15T00:51:00;2.20;99.90
41668;DHT22;27356;50.920;5.350;2023-02-15T00:53:27;2.10;99.90
41668;DHT22;27356;50.920;5.350;2023-02-15T00:55:53;2.10;99.90
41668;DHT22;27356;50.920;5.350;2023-02-15T00:58:19;2.00;99.90
41668;DHT22;27356;50.920;5.350;2023-02-15T01:00:46;1.90;99.90
41668;DHT22;27356;50.920;5.350;2023-02-15T01:03:13;1.80;99.90
41668;DHT22;27356;50.920;5.350;2023-02-15T01:05:39;1.90;99.90
41668;DHT22;27356;50.920;5.350;2023-02-15T01:08:05;2.00;99.90
41668;DHT22;27356;50.920;5.350;2023-02-15T01:10:31;2.00;99.90
41668;DHT22;27356;50.920;5.350;2023-02-15T01:12:58;1.80;99.90
41668;DHT22;27356;50.920;5.350;2023-02-15T01:15:24;1.90;99.90
41668;DHT22;27356;50.920;5.350;2023-02-15T01:17:50;1.90;99.90
41668;DHT22;27356;50.920;5.350;2023-02-15T01:20:22;1.90;99.90
41668;DHT22;27356;50.920;5.350;2023-02-15T01:22:48;1.90;99.90
41668;DHT22;27356;50.920;5.350;2023-02-15T01:25:18;1.80;99.90
41668;DHT22;27356;50.920;5.350;2023-02-15T01:27:45;1.80;99.90
41668;DHT22;27356;50.920;5.350;2023-02-15T01:30:12;1.70;99.90
41668;DHT22;27356;50.920;5.350;2023-02-15T01:32:39;1.80;99.90
41668;DHT22;27356;50.920;5.350;2023-02-15T01:35:05;1.80;99.90
41668;DHT22;27356;50.920;5.350;2023-02-15T01:37:32;1.80;99.90
41668;DHT22;27356;50.920;5.350;2023-02-15T01:39:58;1.80;99.90
41668;DHT22;27356;50.920;5.350;2023-02-15T01:42:26;1.80;99.90
41668;DHT22;27356;50.920;5.350;2023-02-15T01:44:53;1.70;99.90
41668;DHT22;27356;50.920;5.350;2023-02-15T01:47:45;1.60;99.90
41668;DHT22;27356;50.920;5.350;2023-02-15T01:53:30;1.60;99.90
41668;DHT22;27356;50.920;5.350;2023-02-15T01:55:34;1.60;99.90
41668;DHT22;27356;50.920;5.350;2023-02-15T01:58:02;1.50;99.90
41668;DHT22;27356;50.920;5.350;2023-02-15T02:00:28;1.40;99.90
41668;DHT22;27356;50.920;5.350;2023-02-15T02:02:57;1.40;99.90
41668;DHT22;27356;50.920;5.350;2023-02-15T02:05:23;1.40;99.90
41668;DHT22;27356;50.920;5.350;2023-02-15T02:07:51;1.40;99.90
41668;DHT22;27356;50.920;5.350;2023-02-15T02:10:21;1.30;99.90
41668;DHT22;27356;50.920;5.350;2023-02-15T02:12:50;1.20;99.90
41668;DHT22;27356;50.920;5.350;2023-02-15T02:15:16;1.20;99.90
41668;DHT22;27356;50.920;5.350;2023-02-15T02:24:23;1.30;99.90
41668;DHT22;27356;50.920;5.350;2023-02-15T02:26:39;1.20;99.90
41668;DHT22;27356;50.920;5.350;2023-02-15T02:34:30;1.20;99.90
41668;DHT22;27356;50.920;5.350;2023-02-15T02:37:19;1.10;99.90
41668;DHT22;27356;50.920;5.350;2023-02-15T02:40:13;1.10;99.90
41668;DHT22;27356;50.920;5.350;2023-02-15T02:42:42;1.10;99.90
41668;DHT22;27356;50.920;5.350;2023-02-15T02:45:28;1.10;99.90
41668;DHT22;27356;50.920;5.350;2023-02-15T02:48:04;1.10;99.90
41668;DHT22;27356;50.920;5.350;2023-02-15T02:50:31;1.10;99.90
41668;DHT22;27356;50.920;5.350;2023-02-15T02:52:58;1.20;99.90
41668;DHT22;27356;50.920;5.350;2023-02-15T02:55:31;1.00;99.90
41668;DHT22;27356;50.920;5.350;2023-02-15T02:58:12;1.00;99.90
41668;DHT22;27356;50.920;5.350;2023-02-15T03:00:46;1.00;99.90
41668;DHT22;27356;50.920;5.350;2023-02-15T03:03:19;0.80;99.90
41668;DHT22;27356;50.920;5.350;2023-02-15T03:05:47;0.80;99.90
41668;DHT22;27356;50.920;5.350;2023-02-15T03:08:16;0.90;99.90
41668;DHT22;27356;50.920;5.350;2023-02-15T03:10:48;0.90;99.90
41668;DHT22;27356;50.920;5.350;2023-02-15T03:13:14;0.90;99.90
41668;DHT22;27356;50.920;5.350;2023-02-15T03:15:42;0.80;99.90
41668;DHT22;27356;50.920;5.350;2023-02-15T03:19:01;0.80;99.90
41668;DHT22;27356;50.920;5.350;2023-02-15T03:21:35;0.80;99.90
41668;DHT22;27356;50.920;5.350;2023-02-15T03:24:10;0.80;99.90
41668;DHT22;27356;50.920;5.350;2023-02-15T03:26:39;0.80;99.90
41668;DHT22;27356;50.920;5.350;2023-02-15T03:29:06;0.80;99.90
41668;DHT22;27356;50.920;5.350;2023-02-15T03:31:35;0.80;99.90
41668;DHT22;27356;50.920;5.350;2023-02-15T03:34:06;0.70;99.90
41668;DHT22;27356;50.920;5.350;2023-02-15T03:36:52;0.90;99.90
41668;DHT22;27356;50.920;5.350;2023-02-15T03:44:54;0.70;99.90
41668;DHT22;27356;50.920;5.350;2023-02-15T03:47:25;0.60;99.90
41668;DHT22;27356;50.920;5.350;2023-02-15T03:50:13;0.60;99.90
41668;DHT22;27356;50.920;5.350;2023-02-15T03:53:03;0.50;99.90
41668;DHT22;27356;50.920;5.350;2023-02-15T03:55:31;0.60;99.90
41668;DHT22;27356;50.920;5.350;2023-02-15T03:57:56;0.50;99.90
41668;DHT22;27356;50.920;5.350;2023-02-15T04:00:48;0.50;99.90
41668;DHT22;27356;50.920;5.350;2023-02-15T04:03:45;0.50;99.90
41668;DHT22;27356;50.920;5.350;2023-02-15T04:06:12;0.40;99.90
41668;DHT22;27356;50.920;5.350;2023-02-15T04:08:38;0.40;99.90
41668;DHT22;27356;50.920;5.350;2023-02-15T04:11:22;0.50;99.90
41668;DHT22;27356;50.920;5.350;2023-02-15T04:13:48;0.50;99.90
41668;DHT22;27356;50.920;5.350;2023-02-15T04:16:24;0.50;99.90
41668;DHT22;27356;50.920;5.350;2023-02-15T04:18:50;0.60;99.90
41668;DHT22;27356;50.920;5.350;2023-02-15T04:21:34;0.50;99.90
41668;DHT22;27356;50.920;5.350;2023-02-15T04:24:18;0.60;99.90
41668;DHT22;27356;50.920;5.350;2023-02-15T04:27:03;0.80;99.90
41668;DHT22;27356;50.920;5.350;2023-02-15T04:29:30;0.70;99.90
41668;DHT22;27356;50.920;5.350;2023-02-15T04:31:57;0.60;99.90
41668;DHT22;27356;50.920;5.350;2023-02-15T04:34:23;0.70;99.90
41668;DHT22;27356;50.920;5.350;2023-02-15T04:36:49;0.40;99.90
41668;DHT22;27356;50.920;5.350;2023-02-15T04:39:16;0.30;99.90
41668;DHT22;27356;50.920;5.350;2023-02-15T04:41:43;0.40;99.90
41668;DHT22;27356;50.920;5.350;2023-02-15T04:44:12;0.40;99.90
41668;DHT22;27356;50.920;5.350;2023-02-15T04:46:40;0.50;99.90
41668;DHT22;27356;50.920;5.350;2023-02-15T04:49:07;0.40;99.90
41668;DHT22;27356;50.920;5.350;2023-02-15T04:51:33;0.40;99.90
41668;DHT22;27356;50.920;5.350;2023-02-15T04:53:59;0.50;99.90
41668;DHT22;27356;50.920;5.350;2023-02-15T04:56:24;0.40;99.90
41668;DHT22;27356;50.920;5.350;2023-02-15T04:58:50;0.50;99.90
41668;DHT22;27356;50.920;5.350;2023-02-15T05:01:16;0.50;99.90
41668;DHT22;27356;50.920;5.350;2023-02-15T05:03:45;0.40;99.90
41668;DHT22;27356;50.920;5.350;2023-02-15T05:06:10;0.40;99.90
41668;DHT22;27356;50.920;5.350;2023-02-15T05:08:36;0.30;99.90
41668;DHT22;27356;50.920;5.350;2023-02-15T05:11:02;0.50;99.90
41668;DHT22;27356;50.920;5.350;2023-02-15T05:13:27;0.50;99.90
41668;DHT22;27356;50.920;5.350;2023-02-15T05:15:53;0.40;99.90
41668;DHT22;27356;50.920;5.350;2023-02-15T05:18:20;0.40;99.90
41668;DHT22;27356;50.920;5.350;2023-02-15T05:20:47;0.30;99.90
41668;DHT22;27356;50.920;5.350;2023-02-15T05:23:13;0.30;99.90
41668;DHT22;27356;50.920;5.350;2023-02-15T05:25:39;0.30;99.90
41668;DHT22;27356;50.920;5.350;2023-02-15T05:28:26;0.30;99.90
41668;DHT22;27356;50.920;5.350;2023-02-15T05:31:10;0.30;99.90
41668;DHT22;27356;50.920;5.350;2023-02-15T05:33:36;0.20;99.90
41668;DHT22;27356;50.920;5.350;2023-02-15T05:36:03;0.10;99.90
41668;DHT22;27356;50.920;5.350;2023-02-15T05:38:29;0.00;99.90
41668;DHT22;27356;50.920;5.350;2023-02-15T05:40:55;0.00;99.90
41668;DHT22;27356;50.920;5.350;2023-02-15T05:43:21;-0.10;99.90
41668;DHT22;27356;50.920;5.350;2023-02-15T05:45:48;-0.10;99.90
41668;DHT22;27356;50.920;5.350;2023-02-15T05:48:15;-0.10;99.90
41668;DHT22;27356;50.920;5.350;2023-02-15T05:50:41;0.00;99.90
41668;DHT22;27356;50.920;5.350;2023-02-15T05:53:06;0.00;99.90
41668;DHT22;27356;50.920;5.350;2023-02-15T05:55:32;-0.10;99.90
41668;DHT22;27356;50.920;5.350;2023-02-15T05:57:58;0.00;99.90
41668;DHT22;27356;50.920;5.350;2023-02-15T06:00:24;0.00;99.90
41668;DHT22;27356;50.920;5.350;2023-02-15T06:02:50;0.00;99.90
41668;DHT22;27356;50.920;5.350;2023-02-15T06:05:16;0.00;99.90
41668;DHT22;27356;50.920;5.350;2023-02-15T06:07:45;0.00;99.90
41668;DHT22;27356;50.920;5.350;2023-02-15T06:10:11;0.00;99.90
41668;DHT22;27356;50.920;5.350;2023-02-15T06:12:37;0.00;99.90
41668;DHT22;27356;50.920;5.350;2023-02-15T06:15:03;0.00;99.90
41668;DHT22;27356;50.920;5.350;2023-02-15T06:17:29;0.00;99.90
41668;DHT22;27356;50.920;5.350;2023-02-15T06:19:55;-0.10;99.90
41668;DHT22;27356;50.920;5.350;2023-02-15T06:22:21;-0.10;99.90
41668;DHT22;27356;50.920;5.350;2023-02-15T06:24:47;-0.10;99.90
41668;DHT22;27356;50.920;5.350;2023-02-15T06:27:12;-0.20;99.90
41668;DHT22;27356;50.920;5.350;2023-02-15T06:29:38;-0.20;99.90
41668;DHT22;27356;50.920;5.350;2023-02-15T06:32:04;-0.20;99.90
41668;DHT22;27356;50.920;5.350;2023-02-15T06:34:30;-0.20;99.90
41668;DHT22;27356;50.920;5.350;2023-02-15T06:36:56;-0.10;99.90
41668;DHT22;27356;50.920;5.350;2023-02-15T06:39:21;-0.10;99.90
41668;DHT22;27356;50.920;5.350;2023-02-15T06:41:47;-0.20;99.90
41668;DHT22;27356;50.920;5.350;2023-02-15T06:44:13;-0.10;99.90
41668;DHT22;27356;50.920;5.350;2023-02-15T06:46:39;-0.20;99.90
41668;DHT22;27356;50.920;5.350;2023-02-15T06:49:05;-0.20;99.90
41668;DHT22;27356;50.920;5.350;2023-02-15T06:51:31;-0.20;99.90
41668;DHT22;27356;50.920;5.350;2023-02-15T06:53:56;-0.20;99.90
41668;DHT22;27356;50.920;5.350;2023-02-15T06:56:22;-0.10;99.90
41668;DHT22;27356;50.920;5.350;2023-02-15T06:58:48;-0.10;99.90
41668;DHT22;27356;50.920;5.350;2023-02-15T07:01:15;0.00;99.90
41668;DHT22;27356;50.920;5.350;2023-02-15T07:03:41;0.20;99.90
41668;DHT22;27356;50.920;5.350;2023-02-15T07:06:07;0.20;99.90
41668;DHT22;27356;50.920;5.350;2023-02-15T07:08:35;0.30;99.90
41668;DHT22;27356;50.920;5.350;2023-02-15T07:11:01;0.30;99.90
41668;DHT22;27356;50.920;5.350;2023-02-15T07:13:46;0.30;99.90
41668;DHT22;27356;50.920;5.350;2023-02-15T07:16:12;0.30;99.90
41668;DHT22;27356;50.920;5.350;2023-02-15T07:18:39;0.30;99.90
41668;DHT22;27356;50.920;5.350;2023-02-15T07:21:06;0.40;99.90
41668;DHT22;27356;50.920;5.350;2023-02-15T07:23:38;0.40;99.90
41668;DHT22;27356;50.920;5.350;2023-02-15T07:26:05;0.50;99.90
41668;DHT22;27356;50.920;5.350;2023-02-15T07:28:32;0.60;99.90
41668;DHT22;27356;50.920;5.350;2023-02-15T07:31:00;0.70;99.90
41668;DHT22;27356;50.920;5.350;2023-02-15T07:33:26;0.90;99.90
41668;DHT22;27356;50.920;5.350;2023-02-15T07:35:58;0.90;99.90
41668;DHT22;27356;50.920;5.350;2023-02-15T07:38:26;1.00;99.90
41668;DHT22;27356;50.920;5.350;2023-02-15T07:41:01;1.00;99.90
41668;DHT22;27356;50.920;5.350;2023-02-15T07:43:27;1.10;99.90
41668;DHT22;27356;50.920;5.350;2023-02-15T07:45:53;1.20;99.90
41668;DHT22;27356;50.920;5.350;2023-02-15T07:48:19;1.30;99.90
41668;DHT22;27356;50.920;5.350;2023-02-15T07:50:45;1.40;99.90
41668;DHT22;27356;50.920;5.350;2023-02-15T07:53:10;1.50;99.90
41668;DHT22;27356;50.920;5.350;2023-02-15T07:55:36;1.60;99.90
41668;DHT22;27356;50.920;5.350;2023-02-15T07:58:02;1.60;99.90
41668;DHT22;27356;50.920;5.350;2023-02-15T08:00:28;1.70;99.90
41668;DHT22;27356;50.920;5.350;2023-02-15T08:02:55;2.00;99.90
41668;DHT22;27356;50.920;5.350;2023-02-15T08:05:40;2.30;99.90
41668;DHT22;27356;50.920;5.350;2023-02-15T08:08:08;2.60;99.90
41668;DHT22;27356;50.920;5.350;2023-02-15T08:10:35;3.00;99.90
41668;DHT22;27356;50.920;5.350;2023-02-15T08:13:20;3.60;99.90
41668;DHT22;27356;50.920;5.350;2023-02-15T08:15:49;4.20;99.90
41668;DHT22;27356;50.920;5.350;2023-02-15T08:18:15;4.80;99.90
41668;DHT22;27356;50.920;5.350;2023-02-15T08:20:41;5.40;99.90
41668;DHT22;27356;50.920;5.350;2023-02-15T08:23:07;5.90;99.90
41668;DHT22;27356;50.920;5.350;2023-02-15T08:25:32;6.40;99.90
41668;DHT22;27356;50.920;5.350;2023-02-15T08:27:58;6.60;99.90
41668;DHT22;27356;50.920;5.350;2023-02-15T08:30:24;7.00;99.90
41668;DHT22;27356;50.920;5.350;2023-02-15T08:32:49;7.20;99.90
41668;DHT22;27356;50.920;5.350;2023-02-15T08:35:15;7.50;99.90
41668;DHT22;27356;50.920;5.350;2023-02-15T08:37:41;7.80;99.90
41668;DHT22;27356;50.920;5.350;2023-02-15T08:40:07;8.10;99.90
41668;DHT22;27356;50.920;5.350;2023-02-15T08:42:34;8.40;99.90
41668;DHT22;27356;50.920;5.350;2023-02-15T08:45:00;8.50;99.90
41668;DHT22;27356;50.920;5.350;2023-02-15T08:47:26;8.50;99.90
41668;DHT22;27356;50.920;5.350;2023-02-15T08:49:52;9.00;99.90
41668;DHT22;27356;50.920;5.350;2023-02-15T08:52:18;9.30;99.90
41668;DHT22;27356;50.920;5.350;2023-02-15T08:54:44;9.50;99.90
41668;DHT22;27356;50.920;5.350;2023-02-15T08:57:10;9.60;99.90
41668;DHT22;27356;50.920;5.350;2023-02-15T08:59:36;9.70;99.90
41668;DHT22;27356;50.920;5.350;2023-02-15T09:02:01;10.00;99.90
41668;DHT22;27356;50.920;5.350;2023-02-15T09:04:28;10.10;99.90
41668;DHT22;27356;50.920;5.350;2023-02-15T09:06:54;10.40;99.90
41668;DHT22;27356;50.920;5.350;2023-02-15T09:09:21;10.50;99.90
41668;DHT22;27356;50.920;5.350;2023-02-15T09:11:49;10.70;99.90
41668;DHT22;27356;50.920;5.350;2023-02-15T09:14:20;10.60;99.90
41668;DHT22;27356;50.920;5.350;2023-02-15T09:16:47;10.70;99.90
41668;DHT22;27356;50.920;5.350;2023-02-15T09:19:20;10.70;99.90
41668;DHT22;27356;50.920;5.350;2023-02-15T09:21:46;10.90;99.90
41668;DHT22;27356;50.920;5.350;2023-02-15T09:24:13;10.90;99.90
41668;DHT22;27356;50.920;5.350;2023-02-15T09:26:41;11.20;99.90
41668;DHT22;27356;50.920;5.350;2023-02-15T09:29:09;11.20;99.90
41668;DHT22;27356;50.920;5.350;2023-02-15T09:31:40;10.90;99.90
41668;DHT22;27356;50.920;5.350;2023-02-15T09:34:10;10.80;99.90
41668;DHT22;27356;50.920;5.350;2023-02-15T09:36:38;10.70;99.90
41668;DHT22;27356;50.920;5.350;2023-02-15T09:52:27;10.20;99.90
41668;DHT22;27356;50.920;5.350;2023-02-15T09:58:21;10.20;99.90
41668;DHT22;27356;50.920;5.350;2023-02-15T10:09:57;10.00;99.90
41668;DHT22;27356;50.920;5.350;2023-02-15T10:12:32;10.20;99.90
41668;DHT22;27356;50.920;5.350;2023-02-15T10:15:20;10.20;99.90
41668;DHT22;27356;50.920;5.350;2023-02-15T10:23:21;10.20;99.90
41668;DHT22;27356;50.920;5.350;2023-02-15T10:26:18;10.40;99.90
41668;DHT22;27356;50.920;5.350;2023-02-15T10:28:57;10.50;99.90
41668;DHT22;27356;50.920;5.350;2023-02-15T10:34:18;10.50;99.90
41668;DHT22;27356;50.920;5.350;2023-02-15T10:40:19;10.80;99.80
41668;DHT22;27356;50.920;5.350;2023-02-15T10:49:12;11.20;99.10
41668;DHT22;27356;50.920;5.350;2023-02-15T10:57:48;11.60;97.80
41668;DHT22;27356;50.920;5.350;2023-02-15T11:00:42;11.70;97.70
41668;DHT22;27356;50.920;5.350;2023-02-15T11:06:26;11.70;97.40
41668;DHT22;27356;50.920;5.350;2023-02-15T11:08:59;11.70;97.20
41668;DHT22;27356;50.920;5.350;2023-02-15T11:11:34;11.70;97.70
41668;DHT22;27356;50.920;5.350;2023-02-15T11:14:17;11.80;97.30
41668;DHT22;27356;50.920;5.350;2023-02-15T11:16:50;11.80;98.30
41668;DHT22;27356;50.920;5.350;2023-02-15T11:22:11;11.90;97.70
41668;DHT22;27356;50.920;5.350;2023-02-15T11:24:44;12.00;97.80
41668;DHT22;27356;50.920;5.350;2023-02-15T11:27:44;12.10;97.30
41668;DHT22;27356;50.920;5.350;2023-02-15T11:30:13;12.20;96.50
41668;DHT22;27356;50.920;5.350;2023-02-15T11:32:48;12.20;96.70
41668;DHT22;27356;50.920;5.350;2023-02-15T11:38:12;12.40;95.30
41668;DHT22;27356;50.920;5.350;2023-02-15T11:40:58;12.50;95.10
41668;DHT22;27356;50.920;5.350;2023-02-15T11:46:03;12.50;95.00
41668;DHT22;27356;50.920;5.350;2023-02-15T11:48:41;12.50;95.00
41668;DHT22;27356;50.920;5.350;2023-02-15T11:51:16;12.50;94.90
41668;DHT22;27356;50.920;5.350;2023-02-15T11:53:45;12.50;95.10
41668;DHT22;27356;50.920;5.350;2023-02-15T11:56:17;12.50;95.30
41668;DHT22;27356;50.920;5.350;2023-02-15T11:58:59;12.60;95.10
41668;DHT22;27356;50.920;5.350;2023-02-15T12:01:43;12.70;94.60
41668;DHT22;27356;50.920;5.350;2023-02-15T12:04:23;12.80;94.60
41668;DHT22;27356;50.920;5.350;2023-02-15T12:07:00;12.80;94.20
41668;DHT22;27356;50.920;5.350;2023-02-15T12:12:25;12.80;94.60
41668;DHT22;27356;50.920;5.350;2023-02-15T12:14:54;12.90;94.30
41668;DHT22;27356;50.920;5.350;2023-02-15T12:17:28;12.90;94.60
41668;DHT22;27356;50.920;5.350;2023-02-15T12:20:00;12.90;94.40
41668;DHT22;27356;50.920;5.350;2023-02-15T12:22:29;12.90;94.40
41668;DHT22;27356;50.920;5.350;2023-02-15T12:24:58;13.10;94.50
41668;DHT22;27356;50.920;5.350;2023-02-15T12:27:28;13.10;94.10
41668;DHT22;27356;50.920;5.350;2023-02-15T12:29:56;13.00;94.30
41668;DHT22;27356;50.920;5.350;2023-02-15T12:32:27;13.10;93.90
41668;DHT22;27356;50.920;5.350;2023-02-15T12:35:26;13.00;94.70
41668;DHT22;27356;50.920;5.350;2023-02-15T12:41:03;13.10;95.10
41668;DHT22;27356;50.920;5.350;2023-02-15T12:43:34;13.10;95.00
41668;DHT22;27356;50.920;5.350;2023-02-15T12:46:20;13.20;94.50
41668;DHT22;27356;50.920;5.350;2023-02-15T12:48:51;13.30;94.30
41668;DHT22;27356;50.920;5.350;2023-02-15T12:51:44;13.30;94.60
41668;DHT22;27356;50.920;5.350;2023-02-15T12:54:35;13.30;94.70
41668;DHT22;27356;50.920;5.350;2023-02-15T13:02:54;13.40;94.10
41668;DHT22;27356;50.920;5.350;2023-02-15T13:05:42;13.30;94.20
41668;DHT22;27356;50.920;5.350;2023-02-15T13:08:13;13.40;94.40
41668;DHT22;27356;50.920;5.350;2023-02-15T13:10:59;13.40;94.60
41668;DHT22;27356;50.920;5.350;2023-02-15T13:13:33;13.60;94.90
41668;DHT22;27356;50.920;5.350;2023-02-15T13:16:13;13.80;94.60
41668;DHT22;27356;50.920;5.350;2023-02-15T13:18:45;14.00;94.20
41668;DHT22;27356;50.920;5.350;2023-02-15T13:21:31;14.00;94.50
41668;DHT22;27356;50.920;5.350;2023-02-15T13:26:55;13.80;94.60
41668;DHT22;27356;50.920;5.350;2023-02-15T13:29:38;13.70;94.40
41668;DHT22;27356;50.920;5.350;2023-02-15T13:32:15;13.70;94.90
41668;DHT22;27356;50.920;5.350;2023-02-15T13:34:47;13.80;94.50
41668;DHT22;27356;50.920;5.350;2023-02-15T13:37:41;13.90;94.60
41668;DHT22;27356;50.920;5.350;2023-02-15T14:01:45;14.30;94.30
41668;DHT22;27356;50.920;5.350;2023-02-15T14:07:25;14.20;93.80
41668;DHT22;27356;50.920;5.350;2023-02-15T14:12:56;14.10;94.10
41668;DHT22;27356;50.920;5.350;2023-02-15T14:16:09;14.10;93.80
41668;DHT22;27356;50.920;5.350;2023-02-15T14:21:17;14.10;94.10
41668;DHT22;27356;50.920;5.350;2023-02-15T14:31:40;14.30;94.60
41668;DHT22;27356;50.920;5.350;2023-02-15T14:34:21;14.20;95.00
41668;DHT22;27356;50.920;5.350;2023-02-15T14:36:50;14.30;94.40
41668;DHT22;27356;50.920;5.350;2023-02-15T14:42:47;14.40;94.70
41668;DHT22;27356;50.920;5.350;2023-02-15T14:45:41;14.20;95.00
41668;DHT22;27356;50.920;5.350;2023-02-15T14:48:36;14.10;94.80
41668;DHT22;27356;50.920;5.350;2023-02-15T14:51:04;14.20;94.30
41668;DHT22;27356;50.920;5.350;2023-02-15T14:58:55;14.10;94.90
41668;DHT22;27356;50.920;5.350;2023-02-15T15:01:30;14.10;95.30
41668;DHT22;27356;50.920;5.350;2023-02-15T15:04:00;13.90;95.60
41668;DHT22;27356;50.920;5.350;2023-02-15T15:06:35;13.60;96.40
41668;DHT22;27356;50.920;5.350;2023-02-15T15:09:21;13.80;96.50
41668;DHT22;27356;50.920;5.350;2023-02-15T15:11:50;13.80;96.50
41668;DHT22;27356;50.920;5.350;2023-02-15T15:14:49;13.70;96.80
41668;DHT22;27356;50.920;5.350;2023-02-15T15:20:01;13.70;96.70
41668;DHT22;27356;50.920;5.350;2023-02-15T15:22:28;13.80;96.70
41668;DHT22;27356;50.920;5.350;2023-02-15T15:24:59;13.70;96.80
41668;DHT22;27356;50.920;5.350;2023-02-15T15:27:55;13.60;97.00
41668;DHT22;27356;50.920;5.350;2023-02-15T15:49:37;13.50;97.70
41668;DHT22;27356;50.920;5.350;2023-02-15T15:52:16;13.40;97.80
41668;DHT22;27356;50.920;5.350;2023-02-15T15:54:44;13.40;97.80
41668;DHT22;27356;50.920;5.350;2023-02-15T15:57:25;13.30;98.00
41668;DHT22;27356;50.920;5.350;2023-02-15T16:00:00;13.20;98.30
41668;DHT22;27356;50.920;5.350;2023-02-15T16:02:26;13.10;98.40
41668;DHT22;27356;50.920;5.350;2023-02-15T16:05:06;13.10;98.70
41668;DHT22;27356;50.920;5.350;2023-02-15T16:07:32;13.00;98.80
41668;DHT22;27356;50.920;5.350;2023-02-15T16:10:04;12.90;98.90
41668;DHT22;27356;50.920;5.350;2023-02-15T16:12:33;12.80;99.10
41668;DHT22;27356;50.920;5.350;2023-02-15T16:15:13;12.80;99.20
41668;DHT22;27356;50.920;5.350;2023-02-15T16:17:43;12.60;99.30
41668;DHT22;27356;50.920;5.350;2023-02-15T16:20:30;12.50;99.50
41668;DHT22;27356;50.920;5.350;2023-02-15T16:26:02;12.50;99.70
41668;DHT22;27356;50.920;5.350;2023-02-15T16:28:32;12.40;99.90
41668;DHT22;27356;50.920;5.350;2023-02-15T16:31:12;12.30;99.90
41668;DHT22;27356;50.920;5.350;2023-02-15T16:33:45;12.20;99.90
41668;DHT22;27356;50.920;5.350;2023-02-15T16:36:26;12.30;99.90
41668;DHT22;27356;50.920;5.350;2023-02-15T16:41:27;12.20;99.90
41668;DHT22;27356;50.920;5.350;2023-02-15T16:43:55;12.30;99.90
41668;DHT22;27356;50.920;5.350;2023-02-15T16:46:26;12.10;99.90
41668;DHT22;27356;50.920;5.350;2023-02-15T16:48:55;12.10;99.90
41668;DHT22;27356;50.920;5.350;2023-02-15T16:51:26;12.00;99.90
41668;DHT22;27356;50.920;5.350;2023-02-15T16:53:54;12.00;99.90
41668;DHT22;27356;50.920;5.350;2023-02-15T16:56:26;11.80;99.90
41668;DHT22;27356;50.920;5.350;2023-02-15T16:58:53;11.70;99.90
41668;DHT22;27356;50.920;5.350;2023-02-15T17:01:22;11.50;99.90
41668;DHT22;27356;50.920;5.350;2023-02-15T17:03:50;11.50;99.90
41668;DHT22;27356;50.920;5.350;2023-02-15T17:06:27;11.40;99.90
41668;DHT22;27356;50.920;5.350;2023-02-15T17:09:04;11.40;99.90
41668;DHT22;27356;50.920;5.350;2023-02-15T17:11:41;11.40;99.90
41668;DHT22;27356;50.920;5.350;2023-02-15T17:19:33;11.00;99.90
41668;DHT22;27356;50.920;5.350;2023-02-15T17:22:06;11.00;99.90
41668;DHT22;27356;50.920;5.350;2023-02-15T17:24:42;11.00;99.90
41668;DHT22;27356;50.920;5.350;2023-02-15T17:27:15;10.80;99.90
41668;DHT22;27356;50.920;5.350;2023-02-15T17:29:47;10.90;99.90
41668;DHT22;27356;50.920;5.350;2023-02-15T17:32:23;10.80;99.90
41668;DHT22;27356;50.920;5.350;2023-02-15T17:37:42;10.60;99.90
41668;DHT22;27356;50.920;5.350;2023-02-15T17:40:27;10.60;99.90
41668;DHT22;27356;50.920;5.350;2023-02-15T17:42:53;10.70;99.90
41668;DHT22;27356;50.920;5.350;2023-02-15T17:45:21;10.60;99.90
41668;DHT22;27356;50.920;5.350;2023-02-15T17:47:48;10.50;99.90
41668;DHT22;27356;50.920;5.350;2023-02-15T17:50:22;10.40;99.90
41668;DHT22;27356;50.920;5.350;2023-02-15T17:52:49;10.20;99.90
41668;DHT22;27356;50.920;5.350;2023-02-15T17:55:18;10.30;99.90
41668;DHT22;27356;50.920;5.350;2023-02-15T17:58:11;10.30;99.90
41668;DHT22;27356;50.920;5.350;2023-02-15T18:00:43;10.30;99.90
41668;DHT22;27356;50.920;5.350;2023-02-15T18:03:45;10.20;99.90
41668;DHT22;27356;50.920;5.350;2023-02-15T18:06:30;10.10;99.90
41668;DHT22;27356;50.920;5.350;2023-02-15T18:09:17;10.10;99.90
41668;DHT22;27356;50.920;5.350;2023-02-15T18:12:25;10.00;99.90
41668;DHT22;27356;50.920;5.350;2023-02-15T18:14:49;10.00;99.90
41668;DHT22;27356;50.920;5.350;2023-02-15T18:17:16;10.00;99.90
41668;DHT22;27356;50.920;5.350;2023-02-15T18:19:43;10.00;99.90
41668;DHT22;27356;50.920;5.350;2023-02-15T18:22:12;10.10;99.90
41668;DHT22;27356;50.920;5.350;2023-02-15T18:24:38;10.10;99.90
41668;DHT22;27356;50.920;5.350;2023-02-15T18:27:04;10.00;99.90
41668;DHT22;27356;50.920;5.350;2023-02-15T18:29:30;9.90;99.90
41668;DHT22;27356;50.920;5.350;2023-02-15T18:31:57;9.80;99.90
41668;DHT22;27356;50.920;5.350;2023-02-15T18:34:35;9.70;99.90
41668;DHT22;27356;50.920;5.350;2023-02-15T18:37:04;9.60;99.90
41668;DHT22;27356;50.920;5.350;2023-02-15T18:39:42;9.60;99.90
41668;DHT22;27356;50.920;5.350;2023-02-15T18:42:31;9.70;99.90
41668;DHT22;27356;50.920;5.350;2023-02-15T18:45:00;9.70;99.90
41668;DHT22;27356;50.920;5.350;2023-02-15T18:47:27;9.60;99.90
41668;DHT22;27356;50.920;5.350;2023-02-15T18:49:53;9.60;99.90
41668;DHT22;27356;50.920;5.350;2023-02-15T18:52:23;9.50;99.90
41668;DHT22;27356;50.920;5.350;2023-02-15T18:54:59;9.50;99.90
41668;DHT22;27356;50.920;5.350;2023-02-15T18:57:27;9.50;99.90
41668;DHT22;27356;50.920;5.350;2023-02-15T18:59:53;9.50;99.90
41668;DHT22;27356;50.920;5.350;2023-02-15T19:02:19;9.50;99.90
41668;DHT22;27356;50.920;5.350;2023-02-15T19:04:45;9.40;99.90
41668;DHT22;27356;50.920;5.350;2023-02-15T19:09:45;9.40;99.90